createdAt,value
2016-02-23T00:00:14.575Z,12.54
2016-02-23T00:01:13.766Z,12.47
2016-02-23T00:02:14.456Z,12.46
2016-02-23T00:03:14.397Z,12.57
2016-02-23T00:04:14.352Z,12.5
2016-02-23T00:05:14.300Z,12.53
2016-02-23T00:06:14.256Z,12.55
2016-02-23T00:07:14.197Z,12.55
2016-02-23T00:08:14.121Z,12.49
2016-02-23T00:09:14.093Z,12.53
2016-02-23T00:10:14.033Z,12.53
2016-02-23T00:11:13.988Z,12.54
2016-02-23T00:12:13.914Z,12.54
2016-02-23T00:13:13.853Z,12.43
2016-02-23T00:14:13.872Z,12.46
2016-02-23T00:15:13.796Z,12.45
2016-02-23T00:16:13.768Z,12.45
2016-02-23T00:17:13.693Z,12.45
2016-02-23T00:18:13.663Z,12.42
2016-02-23T00:19:13.541Z,12.43
2016-02-23T00:20:13.513Z,12.4
2016-02-23T00:21:13.500Z,12.42
2016-02-23T00:22:13.405Z,12.4
2016-02-23T00:23:13.365Z,12.39
2016-02-23T00:24:13.278Z,12.32
2016-02-23T00:25:13.238Z,12.4
2016-02-23T00:26:13.152Z,12.4
2016-02-23T00:27:13.115Z,12.4
2016-02-23T00:28:13.035Z,12.37
2016-02-23T00:29:12.987Z,12.4
2016-02-23T00:30:12.939Z,12.37
2016-02-23T00:31:12.938Z,12.42
2016-02-23T00:32:12.827Z,12.29
2016-02-23T00:33:12.782Z,12.27
2016-02-23T00:34:12.737Z,12.35
2016-02-23T00:35:12.629Z,12.31
2016-02-23T00:36:12.599Z,12.22
2016-02-23T00:37:12.569Z,12.28
2016-02-23T00:38:12.493Z,12.24
2016-02-23T00:39:12.463Z,12.21
2016-02-23T00:40:12.435Z,12.25
2016-02-23T00:41:12.327Z,12.29
2016-02-23T00:42:12.367Z,12.29
2016-02-23T00:43:12.261Z,12.24
2016-02-23T00:44:12.295Z,12.24
2016-02-23T00:45:12.234Z,12.2
2016-02-23T00:46:12.176Z,12.22
2016-02-23T00:47:12.068Z,12.22
2016-02-23T00:48:12.086Z,12.27
2016-02-23T00:49:11.934Z,12.27
2016-02-23T00:50:11.858Z,12.25
2016-02-23T00:51:11.907Z,12.22
2016-02-23T00:52:11.769Z,12.31
2016-02-23T00:53:11.694Z,12.17
2016-02-23T00:54:11.681Z,12.21
2016-02-23T00:55:11.606Z,12.28
2016-02-23T00:56:11.546Z,12.22
2016-02-23T00:57:11.580Z,12.25
2016-02-23T00:58:11.473Z,12.24
2016-02-23T00:59:11.444Z,12.25
2016-02-23T01:00:11.369Z,12.17
2016-02-23T01:01:11.356Z,12.24
2016-02-23T01:02:11.218Z,12.25
2016-02-23T01:03:11.049Z,12.28
2016-02-23T01:04:11.380Z,12.35
2016-02-23T01:05:11.273Z,12.25
2016-02-23T01:06:11.338Z,12.27
2016-02-23T01:07:11.029Z,12.24
2016-02-23T01:08:10.968Z,12.2
2016-02-23T01:09:10.924Z,12.27
2016-02-23T01:10:10.834Z,12.25
2016-02-23T01:11:10.851Z,12.21
2016-02-23T01:12:10.761Z,12.21
2016-02-23T01:13:10.685Z,12.18
2016-02-23T01:14:10.640Z,12.15
2016-02-23T01:15:10.597Z,12.1
2016-02-23T01:16:10.521Z,12.12
2016-02-23T01:17:10.493Z,12.21
2016-02-23T01:18:10.401Z,12.21
2016-02-23T01:19:10.436Z,12.12
2016-02-23T01:20:10.282Z,12.1
2016-02-23T01:21:10.348Z,12.13
2016-02-23T01:22:10.319Z,12.13
2016-02-23T01:23:10.181Z,12.1
2016-02-23T01:24:10.152Z,12.17
2016-02-23T01:25:10.078Z,12.22
2016-02-23T01:26:10.158Z,12.22
2016-02-23T01:27:09.972Z,12.18
2016-02-23T01:28:09.944Z,12.15
2016-02-23T01:29:09.869Z,12.2
2016-02-23T01:30:09.794Z,12.12
2016-02-23T01:31:09.796Z,12.13
2016-02-23T01:32:09.814Z,12.18
2016-02-23T01:33:09.708Z,12.21
2016-02-23T01:34:09.602Z,12.2
2016-02-23T01:35:09.526Z,12.2
2016-02-23T01:36:09.496Z,12.17
2016-02-23T01:37:09.485Z,12.15
2016-02-23T01:38:09.440Z,12.21
2016-02-23T01:39:09.365Z,12.18
2016-02-23T01:40:09.399Z,12.17
2016-02-23T01:41:09.292Z,12.13
2016-02-23T01:42:09.216Z,12.07
2016-02-23T01:43:09.126Z,12.1
2016-02-23T01:44:09.315Z,12.09
2016-02-23T01:45:09.068Z,12.17
2016-02-23T01:46:08.993Z,12.12
2016-02-23T01:47:08.901Z,12.2
2016-02-23T01:48:08.904Z,12.2
2016-02-23T01:49:08.860Z,12.17
2016-02-23T01:50:08.800Z,12.12
2016-02-23T01:51:08.819Z,12.17
2016-02-23T01:52:08.650Z,12.22
2016-02-23T01:53:08.620Z,12.12
2016-02-23T01:54:08.592Z,12.09
2016-02-23T01:55:08.486Z,12.15
2016-02-23T01:56:08.472Z,12.17
2016-02-23T01:57:08.429Z,12.09
2016-02-23T01:58:08.400Z,12.09
2016-02-23T01:59:08.324Z,12.09
2016-02-23T02:00:08.234Z,12.17
2016-02-23T02:01:08.205Z,12.17
2016-02-23T02:02:08.144Z,12.15
2016-02-23T02:03:08.101Z,12.13
2016-02-23T02:04:08.072Z,12.15
2016-02-23T02:05:08.013Z,12.13
2016-02-23T02:06:07.953Z,12.1
2016-02-23T02:07:07.893Z,12.03
2016-02-23T02:08:07.911Z,12.18
2016-02-23T02:09:07.805Z,12.1
2016-02-23T02:10:07.807Z,12.04
2016-02-23T02:11:07.715Z,12.03
2016-02-23T02:12:07.704Z,12.09
2016-02-23T02:13:07.612Z,12.09
2016-02-23T02:14:07.537Z,12.07
2016-02-23T02:15:07.524Z,12.04
2016-02-23T02:16:07.479Z,12.07
2016-02-23T02:17:07.389Z,12.12
2016-02-23T02:18:07.329Z,12.06
2016-02-23T02:19:07.269Z,12.03
2016-02-23T02:20:07.209Z,12.12
2016-02-23T02:21:07.165Z,12.04
2016-02-23T02:22:07.184Z,11.94
2016-02-23T02:23:07.155Z,12
2016-02-23T02:24:07.048Z,12.06
2016-02-23T02:25:06.957Z,11.99
2016-02-23T02:26:06.913Z,11.95
2016-02-23T02:27:06.837Z,11.88
2016-02-23T02:28:06.825Z,11.91
2016-02-23T02:29:06.780Z,11.86
2016-02-23T02:30:06.694Z,11.83
2016-02-23T02:31:06.635Z,11.84
2016-02-23T02:32:06.574Z,11.97
2016-02-23T02:33:06.546Z,11.75
2016-02-23T02:34:06.502Z,11.69
2016-02-23T02:35:06.441Z,11.8
2016-02-23T02:36:06.398Z,11.77
2016-02-23T02:37:06.338Z,11.8
2016-02-23T02:38:06.324Z,11.7
2016-02-23T02:39:06.282Z,11.72
2016-02-23T02:40:06.174Z,11.73
2016-02-23T02:41:06.098Z,11.6
2016-02-23T02:42:06.055Z,11.65
2016-02-23T02:43:06.104Z,11.73
2016-02-23T02:44:05.950Z,11.69
2016-02-23T02:45:05.968Z,11.68
2016-02-23T02:46:05.893Z,11.57
2016-02-23T02:47:05.802Z,11.57
2016-02-23T02:48:05.806Z,11.57
2016-02-23T02:49:05.683Z,11.55
2016-02-23T02:50:05.638Z,11.55
2016-02-23T02:51:05.610Z,11.62
2016-02-23T02:52:05.550Z,11.55
2016-02-23T02:53:05.505Z,11.6
2016-02-23T02:54:05.415Z,11.5
2016-02-23T02:55:05.386Z,11.51
2016-02-23T02:56:05.311Z,11.54
2016-02-23T02:57:05.267Z,11.48
2016-02-23T02:58:05.207Z,11.45
2016-02-23T02:59:05.210Z,11.45
2016-02-23T03:00:05.181Z,11.36
2016-02-23T03:01:05.058Z,11.36
2016-02-23T03:02:05.061Z,11.45
2016-02-23T03:03:05.064Z,11.35
2016-02-23T03:04:04.911Z,11.37
2016-02-23T03:05:04.866Z,11.41
2016-02-23T03:06:04.807Z,11.4
2016-02-23T03:07:04.763Z,11.4
2016-02-23T03:08:04.749Z,11.4
2016-02-23T03:09:03.908Z,11.44
2016-02-23T03:10:04.614Z,11.4
2016-02-23T03:11:04.554Z,11.5
2016-02-23T03:12:04.540Z,11.37
2016-02-23T03:13:04.419Z,11.37
2016-02-23T03:14:04.406Z,11.4
2016-02-23T03:15:04.284Z,11.3
2016-02-23T03:16:04.271Z,11.3
2016-02-23T03:17:04.304Z,11.29
2016-02-23T03:18:03.979Z,11.35
2016-02-23T03:19:04.092Z,11.29
2016-02-23T03:20:04.047Z,11.29
2016-02-23T03:21:04.003Z,11.3
2016-02-23T03:22:04.053Z,11.27
2016-02-23T03:23:03.852Z,11.26
2016-02-23T03:24:03.887Z,11.26
2016-02-23T03:25:03.858Z,11.25
2016-02-23T03:26:03.797Z,11.19
2016-02-23T03:27:03.786Z,11.19
2016-02-23T03:28:03.663Z,11.29
2016-02-23T03:29:03.556Z,11.17
2016-02-23T03:30:03.527Z,11.08
2016-02-23T03:31:03.546Z,11.08
2016-02-23T03:32:03.438Z,11.12
2016-02-23T03:33:03.348Z,11.11
2016-02-23T03:34:03.319Z,11.07
2016-02-23T03:35:03.243Z,11.12
2016-02-23T03:36:03.231Z,11.18
2016-02-23T03:37:03.124Z,11.11
2016-02-23T03:38:03.111Z,11.11
2016-02-23T03:39:03.051Z,11
2016-02-23T03:40:02.991Z,11.04
2016-02-23T03:41:02.948Z,11.1
2016-02-23T03:42:02.997Z,10.97
2016-02-23T03:43:02.874Z,11.02
2016-02-23T03:44:02.768Z,11.05
2016-02-23T03:45:02.692Z,11.08
2016-02-23T03:46:02.665Z,11.02
2016-02-23T03:47:02.698Z,10.99
2016-02-23T03:48:02.559Z,11.02
2016-02-23T03:49:02.532Z,10.99
2016-02-23T03:50:02.440Z,11.07
2016-02-23T03:51:02.428Z,11.04
2016-02-23T03:52:02.353Z,10.99
2016-02-23T03:53:02.339Z,10.99
2016-02-23T03:54:02.295Z,10.99
2016-02-23T03:55:02.251Z,11
2016-02-23T03:56:02.159Z,10.94
2016-02-23T03:57:02.271Z,10.82
2016-02-23T03:58:02.040Z,10.94
2016-02-23T03:59:01.980Z,10.86
2016-02-23T04:00:02.061Z,10.94
2016-02-23T04:01:01.892Z,10.92
2016-02-23T04:02:01.863Z,10.9
2016-02-23T04:03:01.757Z,10.92
2016-02-23T04:04:01.697Z,10.93
2016-02-23T04:05:01.746Z,10.93
2016-02-23T04:06:01.686Z,11.02
2016-02-23T04:07:01.533Z,10.9
2016-02-23T04:08:01.473Z,10.89
2016-02-23T04:09:01.444Z,10.93
2016-02-23T04:10:01.447Z,10.89
2016-02-23T04:11:01.357Z,10.97
2016-02-23T04:12:01.281Z,10.92
2016-02-23T04:13:01.315Z,10.92
2016-02-23T04:14:01.193Z,10.89
2016-02-23T04:15:01.148Z,10.93
2016-02-23T04:16:01.073Z,10.89
2016-02-23T04:17:01.060Z,10.99
2016-02-23T04:18:00.812Z,10.93
2016-02-23T04:19:00.925Z,10.9
2016-02-23T04:20:00.865Z,10.86
2016-02-23T04:21:00.805Z,10.92
2016-02-23T04:22:00.761Z,10.84
2016-02-23T04:23:00.686Z,10.75
2016-02-23T04:24:00.641Z,10.82
2016-02-23T04:25:00.597Z,10.84
2016-02-23T04:26:00.537Z,10.75
2016-02-23T04:27:00.492Z,10.84
2016-02-23T04:28:00.465Z,10.86
2016-02-23T04:29:00.389Z,10.87
2016-02-23T04:30:00.329Z,10.79
2016-02-23T04:31:00.333Z,10.81
2016-02-23T04:32:00.272Z,10.82
2016-02-23T04:33:00.213Z,10.81
2016-02-23T04:34:00.137Z,10.81
2016-02-23T04:35:00.093Z,10.78
2016-02-23T04:36:00.033Z,10.79
2016-02-23T04:36:59.927Z,10.87
2016-02-23T04:37:59.897Z,10.82
2016-02-23T04:38:59.837Z,10.84
2016-02-23T04:39:59.762Z,10.79
2016-02-23T04:40:59.749Z,10.87
2016-02-23T04:41:59.721Z,10.78
2016-02-23T04:42:59.660Z,10.79
2016-02-23T04:43:59.554Z,10.84
2016-02-23T04:44:59.541Z,10.86
2016-02-23T04:45:59.466Z,10.93
2016-02-23T04:46:59.407Z,10.82
2016-02-23T04:47:59.362Z,10.72
2016-02-23T04:48:59.317Z,10.79
2016-02-23T04:49:59.259Z,10.82
2016-02-23T04:50:59.245Z,10.72
2016-02-23T04:51:59.169Z,10.79
2016-02-23T04:52:59.095Z,10.79
2016-02-23T04:53:59.050Z,10.84
2016-02-23T04:54:59.006Z,10.79
2016-02-23T04:55:58.946Z,10.78
2016-02-23T04:56:58.886Z,10.72
2016-02-23T04:57:58.889Z,10.79
2016-02-23T04:58:58.783Z,10.81
2016-02-23T04:59:58.769Z,10.86
2016-02-23T05:00:58.678Z,10.82
2016-02-23T05:01:58.633Z,10.81
2016-02-23T05:02:58.622Z,10.87
2016-02-23T05:03:58.577Z,10.74
2016-02-23T05:04:58.486Z,10.78
2016-02-23T05:05:58.426Z,10.87
2016-02-23T05:06:58.397Z,10.9
2016-02-23T05:07:58.307Z,10.82
2016-02-23T05:08:58.341Z,10.71
2016-02-23T05:09:58.218Z,10.89
2016-02-23T05:10:58.157Z,10.78
2016-02-23T05:11:58.146Z,10.82
2016-02-23T05:12:58.023Z,10.84
2016-02-23T05:13:57.979Z,10.82
2016-02-23T05:14:57.951Z,10.74
2016-02-23T05:15:57.890Z,10.79
2016-02-23T05:16:57.799Z,10.87
2016-02-23T05:17:57.787Z,10.87
2016-02-23T05:18:57.742Z,10.81
2016-02-23T05:19:57.682Z,10.89
2016-02-23T05:20:57.607Z,10.84
2016-02-23T05:21:57.562Z,10.79
2016-02-23T05:22:57.503Z,10.81
2016-02-23T05:23:57.459Z,10.75
2016-02-23T05:24:57.431Z,10.75
2016-02-23T05:25:57.339Z,10.76
2016-02-23T05:26:57.279Z,10.72
2016-02-23T05:27:57.281Z,10.72
2016-02-23T05:28:57.191Z,10.76
2016-02-23T05:29:57.147Z,10.72
2016-02-23T05:30:57.072Z,10.67
2016-02-23T05:31:57.011Z,10.74
2016-02-23T05:32:56.967Z,10.76
2016-02-23T05:33:56.955Z,10.76
2016-02-23T05:34:56.879Z,10.79
2016-02-23T05:35:56.835Z,10.69
2016-02-23T05:36:56.775Z,10.76
2016-02-23T05:37:56.731Z,10.78
2016-02-23T05:38:56.640Z,10.75
2016-02-23T05:39:56.611Z,10.67
2016-02-23T05:40:56.535Z,10.64
2016-02-23T05:41:56.492Z,10.71
2016-02-23T05:42:56.463Z,10.46
2016-02-23T05:43:56.450Z,10.54
2016-02-23T05:44:56.359Z,10.48
2016-02-23T05:45:56.268Z,10.6
2016-02-23T05:46:56.271Z,10.63
2016-02-23T05:47:56.195Z,10.59
2016-02-23T05:48:56.120Z,10.57
2016-02-23T05:49:56.045Z,10.59
2016-02-23T05:50:56.078Z,10.57
2016-02-23T05:51:55.910Z,10.61
2016-02-23T05:52:55.849Z,10.56
2016-02-23T05:53:55.836Z,10.63
2016-02-23T05:54:55.761Z,10.49
2016-02-23T05:55:55.717Z,10.59
2016-02-23T05:56:55.688Z,10.53
2016-02-23T05:57:55.628Z,10.54
2016-02-23T05:58:55.584Z,10.56
2016-02-23T05:59:55.508Z,10.57
2016-02-23T06:00:55.496Z,10.63
2016-02-23T06:01:55.420Z,10.67
2016-02-23T06:02:55.391Z,10.61
2016-02-23T06:03:55.253Z,10.67
2016-02-23T06:04:55.069Z,10.59
2016-02-23T06:05:55.197Z,10.6
2016-02-23T06:06:55.261Z,10.68
2016-02-23T06:07:55.093Z,10.63
2016-02-23T06:08:55.017Z,10.59
2016-02-23T06:09:55.020Z,10.61
2016-02-23T06:10:54.897Z,10.64
2016-02-23T06:11:54.744Z,10.61
2016-02-23T06:12:54.872Z,10.64
2016-02-23T06:13:54.796Z,10.61
2016-02-23T06:14:54.721Z,10.6
2016-02-23T06:15:54.708Z,10.59
2016-02-23T06:16:54.757Z,10.61
2016-02-23T06:17:54.542Z,10.61
2016-02-23T06:18:54.544Z,10.6
2016-02-23T06:19:54.454Z,10.59
2016-02-23T06:20:54.409Z,10.59
2016-02-23T06:21:54.381Z,10.56
2016-02-23T06:22:54.336Z,10.57
2016-02-23T06:23:54.276Z,10.61
2016-02-23T06:24:54.373Z,10.54
2016-02-23T06:25:54.187Z,10.48
2016-02-23T06:26:54.145Z,10.48
2016-02-23T06:27:54.053Z,10.49
2016-02-23T06:28:53.962Z,10.44
2016-02-23T06:29:53.948Z,10.41
2016-02-23T06:30:53.889Z,10.4
2016-02-23T06:31:53.829Z,10.42
2016-02-23T06:32:53.738Z,10.41
2016-02-23T06:33:53.725Z,10.38
2016-02-23T06:34:53.712Z,10.41
2016-02-23T06:35:53.622Z,10.44
2016-02-23T06:36:53.531Z,10.4
2016-02-23T06:37:53.486Z,10.38
2016-02-23T06:38:53.457Z,10.35
2016-02-23T06:39:53.460Z,10.41
2016-02-23T06:40:53.385Z,10.4
2016-02-23T06:41:53.372Z,10.35
2016-02-23T06:42:53.218Z,10.4
2016-02-23T06:43:53.127Z,10.54
2016-02-23T06:44:53.114Z,10.48
2016-02-23T06:45:53.101Z,10.42
2016-02-23T06:46:53.041Z,10.46
2016-02-23T06:47:52.919Z,10.41
2016-02-23T06:48:52.874Z,10.44
2016-02-23T06:49:52.831Z,10.4
2016-02-23T06:50:52.787Z,10.53
2016-02-23T06:51:52.757Z,10.44
2016-02-23T06:52:52.807Z,10.51
2016-02-23T06:53:52.607Z,10.48
2016-02-23T06:54:52.609Z,10.53
2016-02-23T06:55:52.488Z,10.48
2016-02-23T06:56:51.740Z,10.51
2016-02-23T06:57:52.914Z,10.46
2016-02-23T06:58:52.559Z,10.63
2016-02-23T06:59:52.389Z,10.54
2016-02-23T07:00:52.235Z,10.48
2016-02-23T07:01:52.175Z,10.51
2016-02-23T07:02:52.131Z,10.6
2016-02-23T07:03:52.087Z,10.63
2016-02-23T07:04:52.184Z,10.64
2016-02-23T07:05:51.999Z,10.63
2016-02-23T07:06:51.908Z,10.68
2016-02-23T07:07:51.972Z,10.61
2016-02-23T07:08:51.883Z,10.59
2016-02-23T07:09:52.244Z,10.6
2016-02-23T07:10:51.699Z,10.42
2016-02-23T07:11:51.671Z,10.44
2016-02-23T07:12:51.611Z,10.6
2016-02-23T07:13:51.833Z,10.63
2016-02-23T07:14:51.507Z,10.61
2016-02-23T07:15:51.479Z,10.6
2016-02-23T07:16:51.388Z,10.6
2016-02-23T07:17:51.374Z,10.64
2016-02-23T07:18:51.455Z,10.69
2016-02-23T07:19:51.255Z,10.61
2016-02-23T07:20:51.195Z,10.6
2016-02-23T07:21:51.168Z,10.64
2016-02-23T07:22:51.045Z,10.64
2016-02-23T07:23:51.031Z,10.69
2016-02-23T07:24:50.956Z,10.71
2016-02-23T07:25:50.896Z,10.68
2016-02-23T07:26:50.883Z,10.78
2016-02-23T07:27:50.823Z,10.82
2016-02-23T07:28:50.920Z,10.76
2016-02-23T07:29:50.782Z,10.81
2016-02-23T07:30:50.676Z,10.84
2016-02-23T07:31:50.632Z,10.81
2016-02-23T07:32:50.525Z,10.76
2016-02-23T07:33:50.449Z,10.79
2016-02-23T07:34:50.437Z,10.71
2016-02-23T07:35:50.376Z,10.78
2016-02-23T07:36:50.301Z,10.72
2016-02-23T07:37:50.272Z,10.79
2016-02-23T07:38:50.228Z,10.79
2016-02-23T07:39:50.184Z,10.82
2016-02-23T07:40:50.250Z,10.79
2016-02-23T07:41:50.158Z,10.87
2016-02-23T07:42:50.083Z,10.76
2016-02-23T07:43:49.930Z,10.76
2016-02-23T07:44:50.010Z,10.79
2016-02-23T07:45:49.871Z,10.81
2016-02-23T07:46:49.999Z,10.92
2016-02-23T07:47:49.847Z,10.84
2016-02-23T07:48:49.677Z,10.93
2016-02-23T07:49:49.930Z,10.87
2016-02-23T07:50:49.682Z,10.89
2016-02-23T07:51:49.576Z,10.97
2016-02-23T07:52:49.672Z,10.82
2016-02-23T07:53:49.424Z,10.86
2016-02-23T07:54:49.365Z,10.96
2016-02-23T07:55:49.337Z,10.84
2016-02-23T07:56:49.230Z,10.89
2016-02-23T07:57:49.185Z,10.84
2016-02-23T07:58:49.235Z,10.81
2016-02-23T07:59:49.457Z,10.79
2016-02-23T08:00:49.022Z,10.89
2016-02-23T08:01:48.962Z,10.76
2016-02-23T08:02:48.887Z,10.84
2016-02-23T08:03:48.889Z,10.82
2016-02-23T08:04:48.797Z,10.86
2016-02-23T08:05:48.769Z,10.94
2016-02-23T08:06:48.694Z,10.92
2016-02-23T08:07:48.712Z,10.81
2016-02-23T08:08:48.575Z,10.76
2016-02-23T08:09:48.546Z,10.86
2016-02-23T08:10:48.517Z,10.96
2016-02-23T08:11:48.427Z,10.89
2016-02-23T08:12:48.366Z,10.99
2016-02-23T08:13:48.322Z,10.92
2016-02-23T08:14:48.293Z,10.99
2016-02-23T08:15:48.233Z,11
2016-02-23T08:16:48.158Z,11
2016-02-23T08:17:48.114Z,10.96
2016-02-23T08:18:48.117Z,10.97
2016-02-23T08:19:47.229Z,11.11
2016-02-23T08:20:48.060Z,11.12
2016-02-23T08:21:47.907Z,10.99
2016-02-23T08:22:47.846Z,11.04
2016-02-23T08:23:47.787Z,11.11
2016-02-23T08:24:47.743Z,11.14
2016-02-23T08:25:47.682Z,11.11
2016-02-23T08:26:47.654Z,11.08
2016-02-23T08:27:47.594Z,11.18
2016-02-23T08:28:47.504Z,11.15
2016-02-23T08:29:47.490Z,11.11
2016-02-23T08:30:47.431Z,11.15
2016-02-23T08:31:47.370Z,11.17
2016-02-23T08:32:47.312Z,11.23
2016-02-23T08:33:47.204Z,11.17
2016-02-23T08:34:47.175Z,11.19
2016-02-23T08:35:47.163Z,11.17
2016-02-23T08:36:47.072Z,11.18
2016-02-23T08:37:47.009Z,11.26
2016-02-23T08:38:46.934Z,11.26
2016-02-23T08:39:46.936Z,11.19
2016-02-23T08:40:46.877Z,11.25
2016-02-23T08:41:46.770Z,11.12
2016-02-23T08:42:46.742Z,11.26
2016-02-23T08:43:46.697Z,11.22
2016-02-23T08:44:46.653Z,11.25
2016-02-23T08:45:46.609Z,11.3
2016-02-23T08:46:46.564Z,11.3
2016-02-23T08:47:46.489Z,11.19
2016-02-23T08:48:46.461Z,11.17
2016-02-23T08:49:46.369Z,11.3
2016-02-23T08:50:46.325Z,11.26
2016-02-23T08:51:46.265Z,11.23
2016-02-23T08:52:46.190Z,11.18
2016-02-23T08:53:46.177Z,11.19
2016-02-23T08:54:46.696Z,11.23
2016-02-23T08:55:46.354Z,11.22
2016-02-23T08:56:46.076Z,11.05
2016-02-23T08:57:45.891Z,11
2016-02-23T08:58:45.925Z,10.93
2016-02-23T08:59:45.865Z,10.96
2016-02-23T09:00:45.931Z,10.94
2016-02-23T09:01:45.734Z,10.99
2016-02-23T09:02:45.675Z,11.02
2016-02-23T09:03:45.647Z,10.94
2016-02-23T09:04:45.556Z,10.99
2016-02-23T09:05:45.610Z,11
2016-02-23T09:06:45.581Z,11.07
2016-02-23T09:07:45.412Z,10.97
2016-02-23T09:08:45.384Z,10.97
2016-02-23T09:09:45.292Z,10.99
2016-02-23T09:10:45.358Z,10.99
2016-02-23T09:11:45.298Z,11
2016-02-23T09:12:45.176Z,10.94
2016-02-23T09:13:45.116Z,10.96
2016-02-23T09:14:44.869Z,10.92
2016-02-23T09:15:44.997Z,10.9
2016-02-23T09:16:44.936Z,10.93
2016-02-23T09:17:44.846Z,10.93
2016-02-23T09:18:44.786Z,11
2016-02-23T09:19:44.757Z,10.97
2016-02-23T09:20:44.697Z,10.89
2016-02-23T09:21:44.763Z,10.96
2016-02-23T09:22:44.593Z,10.96
2016-02-23T09:23:44.534Z,10.89
2016-02-23T09:24:44.474Z,10.9
2016-02-23T09:25:44.571Z,11
2016-02-23T09:26:44.370Z,11
2016-02-23T09:27:44.373Z,10.9
2016-02-23T09:28:44.292Z,10.92
2016-02-23T09:29:44.235Z,10.86
2016-02-23T09:30:44.209Z,10.87
2016-02-23T09:31:44.058Z,10.82
2016-02-23T09:32:44.002Z,10.87
2016-02-23T09:33:43.933Z,10.72
2016-02-23T09:34:43.150Z,10.81
2016-02-23T09:35:43.835Z,10.72
2016-02-23T09:36:44.176Z,10.72
2016-02-23T09:37:43.659Z,10.75
2016-02-23T09:38:43.627Z,10.74
2016-02-23T09:39:43.581Z,10.68
2016-02-23T09:40:43.504Z,10.46
2016-02-23T09:41:43.442Z,10.67
2016-02-23T09:42:43.444Z,10.63
2016-02-23T09:43:43.320Z,10.71
2016-02-23T09:44:43.290Z,10.75
2016-02-23T09:45:43.247Z,10.61
2016-02-23T09:46:43.170Z,10.72
2016-02-23T09:47:43.110Z,10.64
2016-02-23T09:48:43.034Z,10.67
2016-02-23T09:49:43.006Z,10.71
2016-02-23T09:50:42.961Z,10.64
2016-02-23T09:51:42.916Z,10.63
2016-02-23T09:52:42.841Z,10.61
2016-02-23T09:53:42.874Z,10.64
2016-02-23T09:54:42.768Z,10.61
2016-02-23T09:55:42.677Z,10.69
2016-02-23T09:56:42.601Z,10.63
2016-02-23T09:57:42.557Z,10.48
2016-02-23T09:58:42.497Z,10.59
2016-02-23T09:59:42.671Z,10.46
2016-02-23T10:00:42.440Z,10.46
2016-02-23T10:01:42.427Z,10.61
2016-02-23T10:02:42.477Z,10.6
2016-02-23T10:03:42.229Z,10.46
2016-02-23T10:04:42.201Z,10.56
2016-02-23T10:05:41.469Z,10.61
2016-02-23T10:06:42.065Z,10.61
2016-02-23T10:07:42.037Z,10.59
2016-02-23T10:08:41.993Z,10.68
2016-02-23T10:09:41.964Z,10.78
2016-02-23T10:10:41.857Z,10.67
2016-02-23T10:11:41.798Z,10.68
2016-02-23T10:12:41.737Z,10.57
2016-02-23T10:13:41.694Z,10.67
2016-02-23T10:14:41.837Z,10.71
2016-02-23T10:15:41.793Z,10.79
2016-02-23T10:16:41.514Z,10.64
2016-02-23T10:17:41.501Z,10.72
2016-02-23T10:18:41.504Z,10.79
2016-02-23T10:19:41.397Z,10.76
2016-02-23T10:20:41.509Z,10.71
2016-02-23T10:21:41.293Z,10.75
2016-02-23T10:22:41.234Z,10.74
2016-02-23T10:23:41.361Z,10.71
2016-02-23T10:24:41.145Z,10.74
2016-02-23T10:25:41.132Z,10.68
2016-02-23T10:26:41.025Z,10.84
2016-02-23T10:27:40.950Z,10.74
2016-02-23T10:28:40.952Z,10.81
2016-02-23T10:29:40.112Z,10.84
2016-02-23T10:30:40.896Z,10.87
2016-02-23T10:31:40.757Z,10.84
2016-02-23T10:32:40.870Z,10.92
2016-02-23T10:33:40.966Z,10.82
2016-02-23T10:34:40.829Z,10.84
2016-02-23T10:35:40.503Z,10.86
2016-02-23T10:36:40.474Z,10.82
2016-02-23T10:37:40.399Z,10.76
2016-02-23T10:38:40.387Z,10.94
2016-02-23T10:39:40.326Z,10.86
2016-02-23T10:40:40.345Z,10.78
2016-02-23T10:41:40.207Z,10.76
2016-02-23T10:42:40.131Z,10.79
2016-02-23T10:43:40.087Z,10.82
2016-02-23T10:44:40.027Z,10.78
2016-02-23T10:45:39.967Z,10.86
2016-02-23T10:46:40.001Z,10.87
2016-02-23T10:47:39.723Z,10.84
2016-02-23T10:48:40.069Z,10.79
2016-02-23T10:49:39.759Z,10.84
2016-02-23T10:50:39.747Z,10.87
2016-02-23T10:51:39.655Z,10.82
2016-02-23T10:52:39.611Z,10.84
2016-02-23T10:53:39.708Z,10.97
2016-02-23T10:54:39.507Z,10.81
2016-02-23T10:55:39.494Z,10.82
2016-02-23T10:56:39.388Z,10.79
2016-02-23T10:57:39.344Z,10.86
2016-02-23T10:58:39.394Z,10.79
2016-02-23T10:59:39.208Z,10.81
2016-02-23T11:00:39.132Z,10.93
2016-02-23T11:01:39.136Z,10.87
2016-02-23T11:02:39.107Z,10.79
2016-02-23T11:03:38.999Z,10.79
2016-02-23T11:04:38.909Z,10.79
2016-02-23T11:05:38.896Z,10.86
2016-02-23T11:06:39.133Z,10.84
2016-02-23T11:07:39.043Z,10.82
2016-02-23T11:08:38.717Z,10.74
2016-02-23T11:09:38.673Z,10.72
2016-02-23T11:10:38.613Z,10.75
2016-02-23T11:11:38.663Z,10.74
2016-02-23T11:12:38.493Z,10.76
2016-02-23T11:13:38.574Z,10.67
2016-02-23T11:14:38.389Z,10.67
2016-02-23T11:15:38.376Z,10.46
2016-02-23T11:16:38.253Z,10.67
2016-02-23T11:17:38.209Z,10.68
2016-02-23T11:18:38.228Z,10.74
2016-02-23T11:19:38.122Z,10.79
2016-02-23T11:20:38.092Z,10.72
2016-02-23T11:21:38.002Z,10.72
2016-02-23T11:22:37.942Z,10.76
2016-02-23T11:23:37.913Z,10.59
2016-02-23T11:24:37.869Z,10.68
2016-02-23T11:25:37.872Z,10.67
2016-02-23T11:26:37.734Z,10.74
2016-02-23T11:27:37.674Z,10.72
2016-02-23T11:28:37.646Z,10.79
2016-02-23T11:29:37.695Z,10.79
2016-02-23T11:30:37.541Z,10.75
2016-02-23T11:31:37.545Z,10.74
2016-02-23T11:32:37.453Z,10.81
2016-02-23T11:33:37.394Z,10.76
2016-02-23T11:34:37.302Z,10.76
2016-02-23T11:35:37.227Z,10.78
2016-02-23T11:36:37.198Z,10.82
2016-02-23T11:37:37.108Z,10.86
2016-02-23T11:38:37.110Z,10.82
2016-02-23T11:39:37.051Z,10.87
2016-02-23T11:40:36.990Z,10.89
2016-02-23T11:41:36.915Z,10.81
2016-02-23T11:42:37.073Z,10.84
2016-02-23T11:43:36.811Z,10.89
2016-02-23T11:44:36.736Z,10.89
2016-02-23T11:45:36.785Z,10.96
2016-02-23T11:46:36.679Z,11.05
2016-02-23T11:47:36.712Z,11.02
2016-02-23T11:48:36.575Z,10.94
2016-02-23T11:49:36.545Z,10.97
2016-02-23T11:50:36.611Z,10.97
2016-02-23T11:51:36.488Z,10.99
2016-02-23T11:52:36.461Z,10.99
2016-02-23T11:53:36.371Z,10.97
2016-02-23T11:54:36.311Z,10.99
2016-02-23T11:55:36.237Z,11.04
2016-02-23T11:56:36.676Z,10.97
2016-02-23T11:57:36.126Z,10.9
2016-02-23T11:58:36.051Z,10.92
2016-02-23T11:59:35.959Z,10.89
2016-02-23T12:00:36.103Z,10.93
2016-02-23T12:01:36.184Z,10.89
2016-02-23T12:02:35.937Z,10.87
2016-02-23T12:03:35.939Z,10.87
2016-02-23T12:04:35.864Z,10.87
2016-02-23T12:05:35.695Z,10.76
2016-02-23T12:06:35.637Z,10.92
2016-02-23T12:07:35.561Z,10.84
2016-02-23T12:08:35.502Z,10.79
2016-02-23T12:09:35.457Z,10.81
2016-02-23T12:10:35.397Z,10.89
2016-02-23T12:11:35.321Z,10.92
2016-02-23T12:12:35.308Z,10.9
2016-02-23T12:13:35.265Z,10.79
2016-02-23T12:14:35.220Z,10.79
2016-02-23T12:15:35.113Z,10.81
2016-02-23T12:16:35.085Z,10.79
2016-02-23T12:17:35.009Z,10.74
2016-02-23T12:18:35.154Z,10.79
2016-02-23T12:19:34.938Z,10.79
2016-02-23T12:20:35.018Z,10.84
2016-02-23T12:21:34.787Z,10.84
2016-02-23T12:22:34.804Z,10.86
2016-02-23T12:23:34.682Z,11.02
2016-02-23T12:24:34.825Z,11
2016-02-23T12:25:34.548Z,11
2016-02-23T12:26:34.613Z,11.08
2016-02-23T12:27:34.490Z,11.04
2016-02-23T12:28:34.509Z,11.08
2016-02-23T12:29:34.339Z,11.19
2016-02-23T12:30:34.326Z,11.26
2016-02-23T12:31:34.235Z,11.4
2016-02-23T12:32:34.207Z,11.37
2016-02-23T12:33:34.147Z,11.47
2016-02-23T12:34:34.134Z,11.52
2016-02-23T12:35:34.058Z,11.55
2016-02-23T12:36:34.123Z,11.66
2016-02-23T12:37:33.907Z,11.68
2016-02-23T12:38:34.129Z,11.8
2016-02-23T12:39:34.242Z,11.97
2016-02-23T12:40:33.822Z,11.83
2016-02-23T12:41:33.762Z,11.9
2016-02-23T12:42:33.718Z,11.95
2016-02-23T12:43:33.642Z,12.04
2016-02-23T12:44:33.567Z,11.94
2016-02-23T12:45:33.538Z,11.95
2016-02-23T12:46:33.462Z,11.87
2016-02-23T12:47:33.435Z,11.97
2016-02-23T12:48:33.360Z,11.95
2016-02-23T12:49:33.299Z,12.04
2016-02-23T12:50:33.286Z,12.1
2016-02-23T12:51:33.163Z,12.03
2016-02-23T12:52:33.152Z,12.13
2016-02-23T12:53:33.091Z,12.04
2016-02-23T12:54:33.079Z,12.03
2016-02-23T12:55:32.987Z,12.1